Time,TemperatureF,DewpointF,PressureIn,WindDirection,WindDirectionDegrees,WindSpeedMPH,WindSpeedGustMPH,Humidity,HourlyPrecipIn,Conditions,Clouds,dailyrainin,SoftwareType,DateUTC
2013-02-06 00:00:00,28.8,26.2,30.00,NE,46,5.0,8.0,90,0.00,,,0.00,meteohub,2013-02-06 05:00:00,
2013-02-06 00:05:00,28.8,25.9,30.00,ENE,57,6.0,10.0,89,0.00,,,0.00,meteohub,2013-02-06 05:05:00,
2013-02-06 00:10:00,28.6,25.7,30.00,NNE,32,7.0,10.0,89,0.00,,,0.00,meteohub,2013-02-06 05:10:00,
2013-02-06 00:15:00,28.6,25.7,30.00,NE,44,3.0,10.0,89,0.00,,,0.00,meteohub,2013-02-06 05:15:00,
2013-02-06 00:20:00,28.6,26.1,30.00,NE,50,5.0,8.0,90,0.00,,,0.00,meteohub,2013-02-06 05:20:00,
2013-02-06 00:25:00,28.6,25.7,30.00,ENE,58,5.0,8.0,89,0.00,,,0.00,meteohub,2013-02-06 05:25:00,
2013-02-06 00:30:00,28.6,25.7,30.00,NE,55,4.0,8.0,89,0.00,,,0.00,meteohub,2013-02-06 05:30:00,
2013-02-06 00:35:00,28.6,26.1,30.00,NE,50,5.0,8.0,90,0.00,,,0.00,meteohub,2013-02-06 05:35:00,
2013-02-06 00:40:00,28.6,26.1,30.00,NNE,33,4.0,8.0,90,0.00,,,0.00,meteohub,2013-02-06 05:40:00,
2013-02-06 00:45:00,28.4,25.9,30.00,NE,35,4.0,7.0,90,0.00,,,0.00,meteohub,2013-02-06 05:45:00,
2013-02-06 00:50:00,28.4,25.9,30.00,ENE,62,3.0,6.0,90,0.00,,,0.00,meteohub,2013-02-06 05:50:00,
2013-02-06 00:55:00,28.2,25.7,30.00,NE,36,4.0,6.0,90,0.00,,,0.00,meteohub,2013-02-06 05:55:00,
2013-02-06 01:00:00,28.2,25.7,30.00,NE,49,3.0,6.0,90,0.00,,,0.00,meteohub,2013-02-06 06:00:00,
2013-02-06 01:05:00,28.0,25.5,30.00,NE,53,4.0,6.0,90,0.00,,,0.00,meteohub,2013-02-06 06:05:00,
2013-02-06 01:10:00,28.0,25.5,30.00,East,81,5.0,7.0,90,0.00,,,0.00,meteohub,2013-02-06 06:10:00,
2013-02-06 01:15:00,28.0,25.7,29.99,NE,53,4.0,8.0,91,0.00,,,0.00,meteohub,2013-02-06 06:15:00,
2013-02-06 01:20:00,28.0,25.7,29.99,NE,44,4.0,8.0,91,0.00,,,0.00,meteohub,2013-02-06 06:20:00,
2013-02-06 01:25:00,28.0,25.5,30.00,NE,50,7.0,8.0,90,0.00,,,0.00,meteohub,2013-02-06 06:25:00,
2013-02-06 01:30:00,28.2,25.7,30.00,NE,37,5.0,8.0,90,0.00,,,0.00,meteohub,2013-02-06 06:30:00,
2013-02-06 01:35:00,28.2,25.7,30.00,NE,44,4.0,8.0,90,0.00,,,0.00,meteohub,2013-02-06 06:35:00,
2013-02-06 01:40:00,28.2,25.7,30.00,NE,53,4.0,8.0,90,0.00,,,0.00,meteohub,2013-02-06 06:40:00,
2013-02-06 01:45:00,28.2,25.7,30.00,NE,56,4.0,8.0,90,0.00,,,0.00,meteohub,2013-02-06 06:45:00,
2013-02-06 01:50:00,28.2,25.7,30.00,ENE,61,5.0,8.0,90,0.00,,,0.00,meteohub,2013-02-06 06:50:00,
2013-02-06 01:55:00,28.2,25.7,30.00,NNE,31,5.0,7.0,90,0.00,,,0.00,meteohub,2013-02-06 06:55:00,
2013-02-06 02:00:00,28.2,25.7,30.00,NE,41,6.0,7.0,90,0.00,,,0.00,meteohub,2013-02-06 07:00:00,
2013-02-06 02:05:00,28.2,25.7,30.00,NE,39,5.0,9.0,90,0.00,,,0.00,meteohub,2013-02-06 07:05:00,
2013-02-06 02:10:00,28.2,25.7,30.00,NE,34,4.0,9.0,90,0.00,,,0.00,meteohub,2013-02-06 07:10:00,
2013-02-06 02:15:00,28.2,25.7,29.99,NE,49,5.0,9.0,90,0.00,,,0.00,meteohub,2013-02-06 07:15:00,
2013-02-06 02:20:00,28.2,25.7,29.99,NNE,33,6.0,9.0,90,0.00,,,0.00,meteohub,2013-02-06 07:20:00,
2013-02-06 02:25:00,28.2,25.9,29.99,NE,39,6.0,9.0,91,0.00,,,0.00,meteohub,2013-02-06 07:25:00,
2013-02-06 02:30:00,28.2,25.9,29.99,NE,50,4.0,8.0,91,0.00,,,0.00,meteohub,2013-02-06 07:30:00,
2013-02-06 02:35:00,28.2,25.9,29.99,ENE,57,4.0,8.0,91,0.00,,,0.00,meteohub,2013-02-06 07:35:00,
2013-02-06 02:40:00,28.0,25.7,29.99,NE,46,5.0,7.0,91,0.00,,,0.00,meteohub,2013-02-06 07:40:00,
2013-02-06 02:45:00,28.9,26.4,29.99,NNE,27,5.0,7.0,90,0.00,,,0.00,meteohub,2013-02-06 07:45:00,
2013-02-06 02:50:00,28.9,26.4,29.99,NNE,27,5.0,7.0,90,0.00,,,0.00,meteohub,2013-02-06 07:50:00,
2013-02-06 02:55:00,28.9,26.4,29.98,North,-999,-999.0,6.0,90,0.00,,,0.00,meteohub,2013-02-06 07:55:00,
2013-02-06 07:46:00,30.9,28.4,30.09,North,-999,-999.0,-999.0,90,-99.99,,,0.00,meteohub,2013-02-06 12:46:00,
2013-02-06 07:51:00,30.9,28.4,30.09,North,-999,-999.0,-999.0,90,0.00,,,0.00,meteohub,2013-02-06 12:51:00,
2013-02-06 07:56:00,30.9,28.4,30.09,NW,321,13.0,15.0,90,0.00,,,0.00,meteohub,2013-02-06 12:56:00,
2013-02-06 08:01:00,30.9,28.0,30.09,NW,316,14.0,15.0,89,0.00,,,0.00,meteohub,2013-02-06 13:01:00,
2013-02-06 08:06:00,30.7,27.9,30.09,NW,310,14.0,16.0,89,0.00,,,0.00,meteohub,2013-02-06 13:06:00,
2013-02-06 08:11:00,30.6,27.7,30.09,NW,316,10.0,16.0,89,0.00,,,0.00,meteohub,2013-02-06 13:11:00,
2013-02-06 08:16:00,30.6,28.0,30.09,NW,311,13.0,16.0,90,0.00,,,0.00,meteohub,2013-02-06 13:16:00,
2013-02-06 08:21:00,30.6,27.7,30.10,NNW,327,14.0,16.0,89,0.00,,,0.00,meteohub,2013-02-06 13:21:00,
2013-02-06 08:26:00,30.6,27.7,30.10,NW,319,17.0,17.0,89,0.00,,,0.00,meteohub,2013-02-06 13:26:00,
2013-02-06 08:31:00,30.7,27.9,30.10,WNW,293,17.0,19.0,89,0.00,,,0.00,meteohub,2013-02-06 13:31:00,
2013-02-06 08:36:00,30.7,28.2,30.11,WNW,295,17.0,19.0,90,0.00,,,0.00,meteohub,2013-02-06 13:36:00,
2013-02-06 08:41:00,30.7,27.9,30.11,WNW,298,16.0,19.0,89,0.00,,,0.00,meteohub,2013-02-06 13:41:00,
2013-02-06 08:46:00,30.7,27.9,30.11,NW,308,14.0,18.0,89,0.00,,,0.00,meteohub,2013-02-06 13:46:00,
2013-02-06 08:51:00,30.7,27.9,30.11,NW,308,21.0,21.0,89,0.00,,,0.00,meteohub,2013-02-06 13:51:00,
2013-02-06 08:56:00,30.9,28.0,30.11,WNW,302,20.0,21.0,89,0.00,,,0.00,meteohub,2013-02-06 13:56:00,
2013-02-06 09:01:00,30.7,27.9,30.11,NW,315,18.0,22.0,89,0.00,,,0.00,meteohub,2013-02-06 14:01:00,
2013-02-06 09:06:00,30.7,27.9,30.11,NW,315,17.0,22.0,89,0.00,,,0.00,meteohub,2013-02-06 14:06:00,
2013-02-06 09:11:00,30.9,28.0,30.11,NW,304,15.0,22.0,89,0.00,,,0.00,meteohub,2013-02-06 14:11:00,
2013-02-06 09:16:00,30.9,28.0,30.12,NW,311,16.0,20.0,89,0.00,,,0.00,meteohub,2013-02-06 14:16:00,
2013-02-06 09:21:00,31.1,28.2,30.12,NW,308,14.0,20.0,89,0.00,,,0.00,meteohub,2013-02-06 14:21:00,
2013-02-06 09:26:00,31.3,27.9,30.12,WNW,298,16.0,20.0,87,0.00,,,0.00,meteohub,2013-02-06 14:26:00,
2013-02-06 09:31:00,31.3,28.2,30.12,NNW,330,15.0,21.0,88,0.00,,,0.00,meteohub,2013-02-06 14:31:00,
2013-02-06 09:36:00,30.9,27.9,30.12,NW,319,17.0,21.0,88,0.00,,,0.00,meteohub,2013-02-06 14:36:00,
2013-02-06 09:41:00,30.9,27.9,30.12,NW,304,18.0,21.0,88,0.00,,,0.00,meteohub,2013-02-06 14:41:00,
2013-02-06 09:46:00,30.7,27.3,30.12,NW,326,18.0,19.0,87,0.00,,,0.00,meteohub,2013-02-06 14:46:00,
2013-02-06 09:51:00,30.7,27.3,30.12,NW,311,16.0,21.0,87,0.00,,,0.00,meteohub,2013-02-06 14:51:00,
2013-02-06 09:56:00,30.9,27.5,30.11,NW,304,14.0,21.0,87,0.00,,,0.00,meteohub,2013-02-06 14:56:00,
2013-02-06 10:01:00,30.9,27.5,30.11,NW,315,12.0,18.0,87,0.00,,,0.00,meteohub,2013-02-06 15:01:00,
2013-02-06 10:06:00,30.9,27.5,30.11,NW,308,14.0,18.0,87,0.00,,,0.00,meteohub,2013-02-06 15:06:00,
2013-02-06 10:11:00,31.1,27.3,30.11,WNW,302,13.0,18.0,86,0.00,,,0.00,meteohub,2013-02-06 15:11:00,
2013-02-06 10:16:00,31.1,27.7,30.11,NW,304,13.0,16.0,87,0.00,,,0.00,meteohub,2013-02-06 15:16:00,
2013-02-06 10:21:00,31.3,27.5,30.12,WNW,301,11.0,16.0,86,0.00,,,0.00,meteohub,2013-02-06 15:21:00,
2013-02-06 10:26:00,31.3,27.5,30.12,NW,321,14.0,15.0,86,0.00,,,0.00,meteohub,2013-02-06 15:26:00,
2013-02-06 10:31:00,31.5,27.7,30.12,WNW,295,16.0,17.0,86,0.00,,,0.00,meteohub,2013-02-06 15:31:00,
2013-02-06 10:36:00,31.5,27.7,30.12,NW,304,15.0,18.0,86,0.00,,,0.00,meteohub,2013-02-06 15:36:00,
2013-02-06 10:42:00,31.6,27.7,30.13,WNW,302,14.0,18.0,85,0.00,,,0.00,meteohub,2013-02-06 15:42:00,
2013-02-06 10:47:00,31.6,27.7,30.13,WNW,300,14.0,18.0,85,0.00,,,0.00,meteohub,2013-02-06 15:47:00,
2013-02-06 10:52:00,31.8,27.9,30.13,WNW,301,15.0,18.0,85,0.00,,,0.00,meteohub,2013-02-06 15:52:00,
2013-02-06 10:57:00,32.0,28.2,30.14,NW,304,19.0,19.0,86,0.00,,,0.00,meteohub,2013-02-06 15:57:00,
2013-02-06 11:02:00,32.2,28.2,30.14,NW,305,13.0,22.0,85,0.00,,,0.00,meteohub,2013-02-06 16:02:00,
2013-02-06 11:07:00,32.4,28.4,30.13,WNW,291,15.0,22.0,85,0.00,,,0.00,meteohub,2013-02-06 16:07:00,
2013-02-06 11:12:00,32.4,28.4,30.13,WNW,288,18.0,22.0,85,0.00,,,0.00,meteohub,2013-02-06 16:12:00,
2013-02-06 11:17:00,32.4,28.0,30.13,WNW,300,17.0,22.0,84,0.00,,,0.00,meteohub,2013-02-06 16:17:00,
2013-02-06 11:22:00,32.4,28.4,30.13,WNW,302,18.0,22.0,85,0.00,,,0.00,meteohub,2013-02-06 16:22:00,
2013-02-06 11:26:00,32.5,28.6,30.13,West,267,15.0,22.0,85,0.00,,,0.00,meteohub,2013-02-06 16:26:00,
2013-02-06 11:32:00,32.7,28.4,30.12,WNW,289,15.0,20.0,84,0.00,,,0.00,meteohub,2013-02-06 16:32:00,
2013-02-06 11:37:00,32.9,28.2,30.12,West,276,12.0,20.0,83,0.00,,,0.00,meteohub,2013-02-06 16:37:00,
2013-02-06 11:42:00,33.1,28.4,30.12,NNW,327,13.0,19.0,83,0.00,,,0.00,meteohub,2013-02-06 16:42:00,
2013-02-06 11:47:00,33.3,28.4,30.12,NW,314,16.0,20.0,82,0.00,,,0.00,meteohub,2013-02-06 16:47:00,
2013-02-06 11:52:00,33.4,28.6,30.12,NW,325,13.0,20.0,82,0.00,,,0.00,meteohub,2013-02-06 16:52:00,
2013-02-06 11:57:00,33.6,28.0,30.11,WNW,295,15.0,21.0,80,0.00,,,0.00,meteohub,2013-02-06 16:57:00,
2013-02-06 12:02:00,33.6,28.4,30.11,West,277,15.0,24.0,81,0.00,,,0.00,meteohub,2013-02-06 17:02:00,
2013-02-06 12:07:00,33.6,28.4,30.11,NW,304,17.0,24.0,81,0.00,,,0.00,meteohub,2013-02-06 17:07:00,
2013-02-06 12:12:00,33.8,28.6,30.11,West,280,17.0,24.0,81,0.00,,,0.00,meteohub,2013-02-06 17:12:00,
2013-02-06 12:17:00,34.0,28.4,30.11,WNW,301,16.0,23.0,80,0.00,,,0.00,meteohub,2013-02-06 17:17:00,
2013-02-06 12:22:00,34.2,28.4,30.10,WNW,290,17.0,23.0,79,0.00,,,0.00,meteohub,2013-02-06 17:22:00,
2013-02-06 12:27:00,34.2,28.6,30.11,SW,235,14.0,23.0,80,0.00,,,0.00,meteohub,2013-02-06 17:27:00,
2013-02-06 12:32:00,34.3,28.2,30.11,NNW,334,11.0,22.0,78,0.00,,,0.00,meteohub,2013-02-06 17:32:00,
2013-02-06 12:37:00,34.5,28.4,30.11,West,275,20.0,24.0,78,0.00,,,0.00,meteohub,2013-02-06 17:37:00,
2013-02-06 12:42:00,34.9,27.7,30.11,West,269,25.0,25.0,75,0.00,,,0.00,meteohub,2013-02-06 17:42:00,
2013-02-06 12:47:00,35.1,27.7,30.11,West,273,21.0,28.0,74,0.00,,,0.00,meteohub,2013-02-06 17:47:00,
2013-02-06 12:52:00,35.1,27.0,30.11,WNW,293,20.0,28.0,72,0.00,,,0.00,meteohub,2013-02-06 17:52:00,
2013-02-06 12:57:00,35.2,27.5,30.11,WNW,302,20.0,28.0,73,0.00,,,0.00,meteohub,2013-02-06 17:57:00,
2013-02-06 13:02:00,35.4,27.3,30.11,WNW,302,21.0,28.0,72,0.00,,,0.00,meteohub,2013-02-06 18:02:00,
2013-02-06 13:07:00,35.8,28.0,30.11,WNW,288,23.0,27.0,73,0.00,,,0.00,meteohub,2013-02-06 18:07:00,
2013-02-06 13:12:00,35.8,28.0,30.11,SE,129,19.0,27.0,73,0.00,,,0.00,meteohub,2013-02-06 18:12:00,
2013-02-06 13:17:00,35.8,28.0,30.11,West,281,17.0,27.0,73,0.00,,,0.00,meteohub,2013-02-06 18:17:00,
2013-02-06 13:22:00,36.0,27.9,30.11,West,273,20.0,27.0,72,0.00,,,0.00,meteohub,2013-02-06 18:22:00,
2013-02-06 13:27:00,36.0,27.9,30.11,West,266,23.0,26.0,72,0.00,,,0.00,meteohub,2013-02-06 18:27:00,
2013-02-06 13:32:00,36.0,28.4,30.11,NNE,16,23.0,32.0,74,0.00,,,0.00,meteohub,2013-02-06 18:32:00,
2013-02-06 13:37:00,36.3,28.2,30.11,SW,219,18.0,32.0,72,0.00,,,0.00,meteohub,2013-02-06 18:37:00,
2013-02-06 13:42:00,36.5,28.4,30.11,WNW,287,15.0,32.0,72,0.00,,,0.00,meteohub,2013-02-06 18:42:00,
2013-02-06 13:47:00,36.3,28.2,30.11,West,278,15.0,26.0,72,0.00,,,0.00,meteohub,2013-02-06 18:47:00,
2013-02-06 13:52:00,36.3,28.8,30.11,West,272,14.0,26.0,74,0.00,,,0.00,meteohub,2013-02-06 18:52:00,
2013-02-06 13:57:00,36.5,28.8,30.11,NW,310,14.0,26.0,73,0.00,,,0.00,meteohub,2013-02-06 18:57:00,
2013-02-06 14:02:00,36.7,27.9,30.11,WNW,287,16.0,24.0,70,0.00,,,0.00,meteohub,2013-02-06 19:02:00,
2013-02-06 14:07:00,36.7,27.1,30.11,WNW,293,22.0,24.0,68,0.00,,,0.00,meteohub,2013-02-06 19:07:00,
2013-02-06 14:12:00,36.7,27.5,30.11,WNW,290,15.0,26.0,69,0.00,,,0.00,meteohub,2013-02-06 19:12:00,
2013-02-06 14:17:00,37.0,27.1,30.11,NW,304,19.0,27.0,67,0.00,,,0.00,meteohub,2013-02-06 19:17:00,
2013-02-06 14:22:00,37.0,26.4,30.11,WNW,299,19.0,27.0,65,0.00,,,0.00,meteohub,2013-02-06 19:22:00,
2013-02-06 14:27:00,37.2,25.7,30.11,WNW,287,18.0,29.0,63,0.00,,,0.00,meteohub,2013-02-06 19:27:00,
2013-02-06 14:32:00,37.6,26.6,30.11,WNW,298,17.0,29.0,64,0.00,,,0.00,meteohub,2013-02-06 19:32:00,
2013-02-06 14:37:00,37.4,26.4,30.12,NW,305,18.0,26.0,64,0.00,,,0.00,meteohub,2013-02-06 19:37:00,
2013-02-06 14:42:00,37.6,26.1,30.12,NW,308,19.0,25.0,63,0.00,,,0.00,meteohub,2013-02-06 19:42:00,
2013-02-06 14:47:00,37.6,24.6,30.12,NW,307,23.0,25.0,59,0.00,,,0.00,meteohub,2013-02-06 19:47:00,
2013-02-06 14:52:00,37.6,26.6,30.12,NW,312,22.0,29.0,64,0.00,,,0.00,meteohub,2013-02-06 19:52:00,
2013-02-06 14:57:00,37.4,25.5,30.12,NW,305,24.0,29.0,62,0.00,,,0.00,meteohub,2013-02-06 19:57:00,
2013-02-06 15:02:00,37.6,24.1,30.13,NW,308,22.0,29.0,58,0.00,,,0.00,meteohub,2013-02-06 20:02:00,
2013-02-06 15:07:00,37.6,23.7,30.13,NW,310,25.0,26.0,57,0.00,,,0.00,meteohub,2013-02-06 20:07:00,
2013-02-06 15:12:00,37.6,25.3,30.13,NW,310,19.0,28.0,61,0.00,,,0.00,meteohub,2013-02-06 20:12:00,
2013-02-06 15:17:00,37.4,25.2,30.13,WNW,303,19.0,28.0,61,0.00,,,0.00,meteohub,2013-02-06 20:17:00,
2013-02-06 15:22:00,37.4,23.9,30.14,WNW,297,25.0,28.0,58,0.00,,,0.00,meteohub,2013-02-06 20:22:00,
2013-02-06 15:27:00,37.6,23.7,30.14,WNW,287,23.0,27.0,57,0.00,,,0.00,meteohub,2013-02-06 20:27:00,
2013-02-06 15:32:00,37.6,25.3,30.14,WSW,257,19.0,27.0,61,0.00,,,0.00,meteohub,2013-02-06 20:32:00,
2013-02-06 15:37:00,37.4,25.2,30.14,NW,315,23.0,27.0,61,0.00,,,0.00,meteohub,2013-02-06 20:37:00,
2013-02-06 15:42:00,37.6,25.3,30.14,WNW,298,21.0,27.0,61,0.00,,,0.00,meteohub,2013-02-06 20:42:00,
2013-02-06 15:47:00,37.6,26.6,30.14,West,281,23.0,27.0,64,0.00,,,0.00,meteohub,2013-02-06 20:47:00,
2013-02-06 15:52:00,37.6,27.0,30.15,NW,316,21.0,27.0,65,0.00,,,0.00,meteohub,2013-02-06 20:52:00,
2013-02-06 15:57:00,37.2,25.7,30.15,WNW,293,21.0,28.0,63,0.00,,,0.00,meteohub,2013-02-06 20:57:00,
2013-02-06 16:02:00,37.0,26.1,30.15,WNW,299,18.0,28.0,64,0.00,,,0.00,meteohub,2013-02-06 21:02:00,
2013-02-06 16:07:00,37.0,26.1,30.15,WNW,303,17.0,28.0,64,0.00,,,0.00,meteohub,2013-02-06 21:07:00,
2013-02-06 16:12:00,36.9,25.0,30.16,NW,308,19.0,27.0,62,0.00,,,0.00,meteohub,2013-02-06 21:12:00,
2013-02-06 16:17:00,37.0,25.2,30.16,NW,304,20.0,26.0,62,0.00,,,0.00,meteohub,2013-02-06 21:17:00,
2013-02-06 16:22:00,36.9,25.0,30.16,WNW,301,18.0,26.0,62,0.00,,,0.00,meteohub,2013-02-06 21:22:00,
2013-02-06 16:27:00,37.2,25.3,30.16,NW,314,17.0,26.0,62,0.00,,,0.00,meteohub,2013-02-06 21:27:00,
2013-02-06 16:32:00,37.2,25.3,30.16,WNW,297,20.0,26.0,62,0.00,,,0.00,meteohub,2013-02-06 21:32:00,
2013-02-06 16:37:00,37.2,25.3,30.17,NW,308,20.0,25.0,62,0.00,,,0.00,meteohub,2013-02-06 21:37:00,
2013-02-06 16:42:00,37.4,25.9,30.17,WNW,300,16.0,25.0,63,0.00,,,0.00,meteohub,2013-02-06 21:42:00,
2013-02-06 16:47:00,37.4,25.2,30.17,NW,311,13.0,24.0,61,0.00,,,0.00,meteohub,2013-02-06 21:47:00,
2013-02-06 16:52:00,37.4,25.9,30.17,NW,322,15.0,22.0,63,0.00,,,0.00,meteohub,2013-02-06 21:52:00,
2013-02-06 16:57:00,37.2,24.3,30.17,NW,321,17.0,21.0,59,0.00,,,0.00,meteohub,2013-02-06 21:57:00,
2013-02-06 17:02:00,37.2,25.7,30.17,NW,323,13.0,19.0,63,0.00,,,0.00,meteohub,2013-02-06 22:02:00,
2013-02-06 17:07:00,37.2,25.0,30.17,NW,325,16.0,19.0,61,0.00,,,0.00,meteohub,2013-02-06 22:07:00,
2013-02-06 17:12:00,37.2,24.6,30.18,NNW,330,17.0,19.0,60,0.00,,,0.00,meteohub,2013-02-06 22:12:00,
2013-02-06 17:17:00,37.0,25.2,30.18,NW,322,17.0,21.0,62,0.00,,,0.00,meteohub,2013-02-06 22:17:00,
2013-02-06 17:22:00,37.2,25.0,30.19,NW,321,15.0,21.0,61,0.00,,,0.00,meteohub,2013-02-06 22:22:00,
2013-02-06 17:27:00,37.2,25.0,30.19,NW,326,16.0,21.0,61,0.00,,,0.00,meteohub,2013-02-06 22:27:00,
2013-02-06 17:32:00,37.4,25.2,30.19,NW,321,27.0,27.0,61,0.00,,,0.00,meteohub,2013-02-06 22:32:00,
2013-02-06 17:38:00,37.4,24.4,30.19,NNW,332,22.0,27.0,59,0.00,,,0.00,meteohub,2013-02-06 22:38:00,
2013-02-06 17:42:00,37.2,26.2,30.20,NNW,340,21.0,27.0,64,0.00,,,0.00,meteohub,2013-02-06 22:42:00,
2013-02-06 17:48:00,37.2,26.2,30.20,NNW,333,16.0,27.0,64,0.00,,,0.00,meteohub,2013-02-06 22:48:00,
2013-02-06 17:53:00,37.2,24.6,30.21,NW,325,19.0,25.0,60,0.00,,,0.00,meteohub,2013-02-06 22:53:00,
2013-02-06 17:58:00,37.4,24.8,30.21,NW,325,18.0,24.0,60,0.00,,,0.00,meteohub,2013-02-06 22:58:00,
2013-02-06 18:03:00,37.4,24.8,30.22,NW,321,18.0,23.0,60,0.00,,,0.00,meteohub,2013-02-06 23:03:00,
2013-02-06 18:08:00,37.2,26.6,30.22,NW,326,17.0,21.0,65,0.00,,,0.00,meteohub,2013-02-06 23:08:00,
2013-02-06 18:13:00,37.2,24.6,30.22,NNW,333,18.0,21.0,60,0.00,,,0.00,meteohub,2013-02-06 23:13:00,
2013-02-06 18:18:00,37.2,25.7,30.23,NNW,328,18.0,21.0,63,0.00,,,0.00,meteohub,2013-02-06 23:18:00,
2013-02-06 18:23:00,37.4,24.8,30.23,NNW,328,17.0,20.0,60,0.00,,,0.00,meteohub,2013-02-06 23:23:00,
2013-02-06 18:28:00,37.4,23.9,30.23,NW,319,17.0,20.0,58,0.00,,,0.00,meteohub,2013-02-06 23:28:00,
2013-02-06 18:33:00,37.4,24.8,30.23,NW,326,17.0,20.0,60,0.00,,,0.00,meteohub,2013-02-06 23:33:00,
2013-02-06 18:38:00,37.2,24.3,30.24,NW,326,18.0,21.0,59,0.00,,,0.00,meteohub,2013-02-06 23:38:00,
2013-02-06 18:43:00,37.0,23.7,30.24,North,356,23.0,23.0,58,0.00,,,0.00,meteohub,2013-02-06 23:43:00,
2013-02-06 18:48:00,36.9,23.0,30.24,NNW,338,18.0,23.0,57,0.00,,,0.00,meteohub,2013-02-06 23:48:00,
2013-02-06 18:53:00,36.9,25.0,30.25,NNW,345,19.0,24.0,62,0.00,,,0.00,meteohub,2013-02-06 23:53:00,
2013-02-06 18:58:00,36.9,24.3,30.25,NNW,332,22.0,24.0,60,0.00,,,0.00,meteohub,2013-02-06 23:58:00,
2013-02-06 19:03:00,36.7,23.4,30.25,NNW,338,20.0,24.0,58,0.00,,,0.00,meteohub,2013-02-07 00:03:00,
2013-02-06 19:08:00,36.5,23.2,30.26,NNW,338,19.0,24.0,58,0.00,,,0.00,meteohub,2013-02-07 00:08:00,
2013-02-06 19:13:00,36.3,23.7,30.27,NNW,347,16.0,24.0,60,0.00,,,0.00,meteohub,2013-02-07 00:13:00,
2013-02-06 19:18:00,36.1,22.5,30.27,NNW,338,22.0,24.0,57,0.00,,,0.00,meteohub,2013-02-07 00:18:00,
2013-02-06 19:23:00,36.1,22.5,30.27,NNW,343,17.0,25.0,57,0.00,,,0.00,meteohub,2013-02-07 00:23:00,
2013-02-06 19:28:00,36.0,21.7,30.27,North,351,22.0,25.0,56,0.00,,,0.00,meteohub,2013-02-07 00:28:00,
2013-02-06 19:33:00,36.0,23.0,30.28,NNW,344,22.0,25.0,59,0.00,,,0.00,meteohub,2013-02-07 00:33:00,
2013-02-06 19:38:00,35.8,20.8,30.28,North,349,26.0,27.0,54,0.00,,,0.00,meteohub,2013-02-07 00:38:00,
2013-02-06 19:43:00,35.6,19.8,30.28,North,359,23.0,28.0,52,0.00,,,0.00,meteohub,2013-02-07 00:43:00,
2013-02-06 19:48:00,35.4,19.9,30.28,North,353,24.0,28.0,53,0.00,,,0.00,meteohub,2013-02-07 00:48:00,
2013-02-06 19:53:00,35.2,19.4,30.28,NNW,347,22.0,28.0,52,0.00,,,0.00,meteohub,2013-02-07 00:53:00,
2013-02-06 19:58:00,35.2,18.9,30.29,NNW,327,23.0,28.0,51,0.00,,,0.00,meteohub,2013-02-07 00:58:00,
2013-02-06 20:03:00,35.2,19.4,30.29,NNW,334,17.0,27.0,52,0.00,,,0.00,meteohub,2013-02-07 01:03:00,
2013-02-06 20:08:00,35.1,21.0,30.29,North,352,22.0,27.0,56,0.00,,,0.00,meteohub,2013-02-07 01:08:00,
2013-02-06 20:13:00,35.1,20.1,30.30,NNW,343,20.0,27.0,54,0.00,,,0.00,meteohub,2013-02-07 01:13:00,
2013-02-06 20:18:00,34.9,19.9,30.30,North,349,21.0,26.0,54,0.00,,,0.00,meteohub,2013-02-07 01:18:00,
2013-02-06 20:23:00,34.7,18.9,30.30,North,355,25.0,26.0,52,0.00,,,0.00,meteohub,2013-02-07 01:23:00,
2013-02-06 20:28:00,34.5,17.8,30.30,North,0,25.0,25.0,50,0.00,,,0.00,meteohub,2013-02-07 01:28:00,
2013-02-06 20:33:00,34.5,17.2,30.30,NNW,342,20.0,27.0,49,0.00,,,0.00,meteohub,2013-02-07 01:33:00,
2013-02-06 20:38:00,34.3,17.2,30.31,North,354,27.0,28.0,49,0.00,,,0.00,meteohub,2013-02-07 01:38:00,
2013-02-06 20:43:00,34.3,18.5,30.31,NNW,332,22.0,28.0,52,0.00,,,0.00,meteohub,2013-02-07 01:43:00,
2013-02-06 20:48:00,34.3,18.1,30.32,North,352,23.0,28.0,51,0.00,,,0.00,meteohub,2013-02-07 01:48:00,
2013-02-06 20:53:00,34.2,18.0,30.32,NNW,347,23.0,28.0,51,0.00,,,0.00,meteohub,2013-02-07 01:53:00,
2013-02-06 20:58:00,34.0,17.8,30.32,North,351,21.0,27.0,51,0.00,,,0.00,meteohub,2013-02-07 01:58:00,
2013-02-06 21:03:00,34.0,19.0,30.32,NNW,345,27.0,28.0,54,0.00,,,0.00,meteohub,2013-02-07 02:03:00,
2013-02-06 21:08:00,33.6,14.5,30.33,NNW,338,27.0,29.0,45,0.00,,,0.00,meteohub,2013-02-07 02:08:00,
2013-02-06 21:13:00,33.6,17.8,30.33,NNW,347,23.0,32.0,52,0.00,,,0.00,meteohub,2013-02-07 02:13:00,
2013-02-06 21:18:00,33.4,17.8,30.33,North,356,29.0,32.0,52,0.00,,,0.00,meteohub,2013-02-07 02:18:00,
2013-02-06 21:23:00,33.4,16.9,30.33,North,352,25.0,32.0,50,0.00,,,0.00,meteohub,2013-02-07 02:23:00,
2013-02-06 21:28:00,33.3,17.6,30.33,NNW,347,23.0,31.0,52,0.00,,,0.00,meteohub,2013-02-07 02:28:00,
2013-02-06 21:33:00,33.3,17.6,30.34,North,355,20.0,31.0,52,0.00,,,0.00,meteohub,2013-02-07 02:33:00,
2013-02-06 21:38:00,33.1,16.0,30.34,NNE,12,21.0,28.0,49,0.00,,,0.00,meteohub,2013-02-07 02:38:00,
2013-02-06 21:43:00,32.9,14.4,30.34,NNE,15,21.0,25.0,46,0.00,,,0.00,meteohub,2013-02-07 02:43:00,
2013-02-06 21:48:00,32.7,14.7,30.34,NNW,338,20.0,26.0,47,0.00,,,0.00,meteohub,2013-02-07 02:48:00,
2013-02-06 21:53:00,32.7,15.3,30.35,North,5,17.0,26.0,48,0.00,,,0.00,meteohub,2013-02-07 02:53:00,
2013-02-06 21:58:00,32.5,16.3,30.35,NNW,347,21.0,26.0,51,0.00,,,0.00,meteohub,2013-02-07 02:58:00,
2013-02-06 22:03:00,32.5,16.0,30.35,North,349,22.0,26.0,50,0.00,,,0.00,meteohub,2013-02-07 03:03:00,
2013-02-06 22:08:00,32.4,13.8,30.35,North,356,21.0,26.0,46,0.00,,,0.00,meteohub,2013-02-07 03:08:00,
2013-02-06 22:13:00,32.4,12.9,30.35,North,0,17.0,26.0,44,0.00,,,0.00,meteohub,2013-02-07 03:13:00,
2013-02-06 22:18:00,32.2,12.7,30.35,North,1,19.0,26.0,44,0.00,,,0.00,meteohub,2013-02-07 03:18:00,
2013-02-06 22:23:00,32.0,13.1,30.36,NNW,342,18.0,26.0,45,0.00,,,0.00,meteohub,2013-02-07 03:23:00,
2013-02-06 22:28:00,32.0,15.1,30.36,North,5,11.0,26.0,49,0.00,,,0.00,meteohub,2013-02-07 03:28:00,
2013-02-06 22:33:00,31.8,12.4,30.36,North,356,17.0,24.0,44,0.00,,,0.00,meteohub,2013-02-07 03:33:00,
2013-02-06 22:38:00,31.8,14.9,30.36,North,1,14.0,22.0,49,0.00,,,0.00,meteohub,2013-02-07 03:38:00,
2013-02-06 22:43:00,31.6,13.3,30.37,NNW,347,19.0,25.0,46,0.00,,,0.00,meteohub,2013-02-07 03:43:00,
2013-02-06 22:48:00,31.5,10.9,30.37,North,349,20.0,25.0,42,0.00,,,0.00,meteohub,2013-02-07 03:48:00,
2013-02-06 22:53:00,31.5,12.0,30.37,NNW,345,22.0,24.0,44,0.00,,,0.00,meteohub,2013-02-07 03:53:00,
2013-02-06 22:58:00,31.3,12.4,30.38,North,355,19.0,25.0,45,0.00,,,0.00,meteohub,2013-02-07 03:58:00,
2013-02-06 23:03:00,31.1,7.9,30.38,North,357,25.0,26.0,37,0.00,,,0.00,meteohub,2013-02-07 04:03:00,
2013-02-06 23:08:00,30.9,8.8,30.38,North,351,25.0,31.0,39,0.00,,,0.00,meteohub,2013-02-07 04:08:00,
2013-02-06 23:14:00,30.9,7.7,30.38,North,1,26.0,31.0,37,0.00,,,0.00,meteohub,2013-02-07 04:14:00,
2013-02-06 23:19:00,30.7,8.1,30.38,North,356,28.0,31.0,38,0.00,,,0.00,meteohub,2013-02-07 04:19:00,
2013-02-06 23:24:00,30.7,8.1,30.39,North,354,26.0,31.0,38,0.00,,,0.00,meteohub,2013-02-07 04:24:00,
2013-02-06 23:29:00,30.6,9.7,30.39,North,356,25.0,31.0,41,0.00,,,0.00,meteohub,2013-02-07 04:29:00,
2013-02-06 23:34:00,30.6,7.3,30.39,North,349,26.0,31.0,37,0.00,,,0.00,meteohub,2013-02-07 04:34:00,
2013-02-06 23:39:00,30.6,6.1,30.39,NNW,348,25.0,31.0,35,0.00,,,0.00,meteohub,2013-02-07 04:39:00,
2013-02-06 23:44:00,30.4,5.4,30.39,NNW,347,21.0,29.0,34,0.00,,,0.00,meteohub,2013-02-07 04:44:00,
2013-02-06 23:49:00,30.4,7.9,30.40,North,355,16.0,30.0,38,0.00,,,0.00,meteohub,2013-02-07 04:49:00,
2013-02-06 23:54:00,30.2,7.7,30.40,North,353,22.0,30.0,38,0.00,,,0.00,meteohub,2013-02-07 04:54:00,
2013-02-06 23:59:00,30.0,8.6,30.40,NNE,13,20.0,30.0,40,0.00,,,0.00,meteohub,2013-02-07 04:59:00,